Domov               UVHVVR             MKGP            O straneh              
ZDRAVSTVENO VARSTVO RASTLIN
  MREŽA AGROMET. POSTAJ
 ► PROGNOSTIČNA OBVESTILA
AGROMETEOROLOŠKI PODATKI -
ARSO
OBVLADOVANJE TVEGANJ ZARADI
NEUGODNIH VREMENSKIH RAZMER
  ► NARAVNE NESREČE
  ► SUŠA/MOČA
  ► NAMAKANJE
  ► ŽLED (gozdarstvo)
KARTOGRAFSKI PRIKAZI
SPLETNE POVEZAVE
PROJEKTI IN PUBLIKACIJE

AGROMETEOROLOŠKA MREŽA: VREMENSKE POSTAJE IN FENOLOŠKA OPAZOVANJA

Pregled podatkov za lokacijo Višnjevik, meteorološka postaja 857246

Pregled senzorjev na lokaciji

ID Ime Zadnja
vrednost
Datum
zadnje
spremembe
Tip
senzorja
3904 Omočenost lista (U) 0 U 23.7.2018 05:00 A730WET
3906 Padavine (mm) 0 mm 23.7.2018 05:00 Rain-O-Matic
3903 Relativna vlaga 2 m (% RH) 95,13 % RH 23.7.2018 05:00 50YA
3902 Temperatura 2 m (°C) 17,22 °C 23.7.2018 05:00 50YA

Pregled podatkov zadnjih 24 ur

Zap.
št.
Datum in čas Višnjevik
Omočenost
lista
Padavine Relativna
vlaga
2
m
Temperatura
2
m
1 23.7.2018 05:30
2 23.7.2018 05:00
3 23.7.2018 04:30
4 23.7.2018 04:00 0 0 94,8 17,3
5 23.7.2018 03:30 0 0 93,1 17,6
6 23.7.2018 03:00 0 0 92,1 18
7 23.7.2018 02:30 0 0 92,4 18
8 23.7.2018 02:00 0 0 91,6 18,3
9 23.7.2018 01:30 1 0 90,5 18,6
10 23.7.2018 01:00 2,5 0 90,8 18,6
11 23.7.2018 00:30 3 0 91,6 18,6
12 23.7.2018 00:00 1,5 0 90,2 19
13 22.7.2018 23:30 9 0 91,3 18,9
14 22.7.2018 23:00 10 0 94,2 18,5
15 22.7.2018 22:30 10 0 93,4 18,6
16 22.7.2018 22:00 10 0 95,2 18,5
17 22.7.2018 21:30 10 0,2 95 18,4
18 22.7.2018 21:00 10 0,2 94,5 18,5
19 22.7.2018 20:30 10 0 94 18,5
20 22.7.2018 20:00 10 0 93,7 18,5
21 22.7.2018 19:30 10 0 94 18,4
22 22.7.2018 19:00 10 0,2 94,7 18,3
23 22.7.2018 18:30 10 0 94,5 18,4
24 22.7.2018 18:00 10 0,4 95,6 18,4
25 22.7.2018 17:30 10 0,2 94,9 18,7
26 22.7.2018 17:00 10 0 95,1 18,9
27 22.7.2018 16:30 10 0 95,2 19
28 22.7.2018 16:00 10 0 94,9 18,9
29 22.7.2018 15:30 10 0 94,8 18,7
30 22.7.2018 15:00 10 1,6 85,9 19,9
31 22.7.2018 14:30 0 0 71,1 23,3
32 22.7.2018 14:00 10 0 69,8 24,2
33 22.7.2018 13:30 0 0 53,6 27,6
34 22.7.2018 13:00 0 0 44,7 30,5
35 22.7.2018 12:30 0 0 47,5 29,7
36 22.7.2018 12:00 0 0 46,2 30,2
37 22.7.2018 11:30 0 0 48,6 30,3
38 22.7.2018 11:00 0 0 52,6 29,6
39 22.7.2018 10:30 0 0 59,4 27,9
40 22.7.2018 10:00 0 0 67,1 25,1
41 22.7.2018 09:30 0 0 67,2 24,8
42 22.7.2018 09:00 0 0 69,6 23,6
43 22.7.2018 08:30 0 0 70,7 22,7
44 22.7.2018 08:00 0 0 71,1 22,5
45 22.7.2018 07:30 0 0 73 22,2
46 22.7.2018 07:00 0 0 81,5 19,8
47 22.7.2018 06:30 0 0 85,6 18,7
48 22.7.2018 06:00 0 0 85,9 18,5
© 2011 Ministrstvo za kmetijstvo, gozdarstvo in prehrano. Vse pravice pridržane.